createdAt,value
2019-05-18T00:00:14.392Z,20.93
2019-05-18T00:02:45.006Z,21.30
2019-05-18T00:05:15.676Z,19.83
2019-05-18T00:07:46.218Z,22.37
2019-05-18T00:10:16.978Z,22.00
2019-05-18T00:12:47.718Z,22.47
2019-05-18T00:15:18.461Z,20.67
2019-05-18T00:17:48.843Z,22.73
2019-05-18T00:20:19.631Z,21.30
2019-05-18T00:22:50.325Z,21.43
2019-05-18T00:25:20.668Z,22.40
2019-05-18T00:27:51.387Z,24.17
2019-05-18T00:30:21.806Z,21.60
2019-05-18T00:32:52.555Z,22.27
2019-05-18T00:35:22.930Z,21.77
2019-05-18T00:37:53.301Z,24.47
2019-05-18T00:40:24.055Z,25.27
2019-05-18T00:42:54.786Z,25.90
2019-05-18T00:45:25.161Z,24.37
2019-05-18T00:47:55.849Z,23.90
2019-05-18T00:50:26.248Z,23.80
2019-05-18T00:52:56.653Z,23.30
2019-05-18T00:55:27.432Z,25.30
2019-05-18T00:57:57.805Z,24.20
2019-05-18T01:00:28.181Z,24.50
2019-05-18T01:02:58.714Z,23.97
2019-05-18T01:05:29.085Z,25.80
2019-05-18T01:07:59.557Z,26.27
2019-05-18T01:10:29.926Z,24.00
2019-05-18T01:13:00.275Z,25.47
2019-05-18T01:15:30.767Z,26.33
2019-05-18T01:18:02.364Z,25.63
2019-05-18T01:20:32.944Z,26.17
2019-05-18T01:23:03.366Z,26.90
2019-05-18T01:25:33.758Z,26.70
2019-05-18T01:28:04.398Z,24.60
2019-05-18T01:30:35.194Z,24.00
2019-05-18T01:33:06.008Z,27.30
2019-05-18T01:35:36.411Z,27.10
2019-05-18T01:38:06.760Z,27.93
2019-05-18T01:40:37.905Z,27.20
2019-05-18T01:43:08.253Z,27.13
2019-05-18T01:45:38.670Z,27.47
2019-05-18T01:48:13.790Z,27.83
2019-05-18T01:50:41.133Z,26.80
2019-05-18T01:53:11.486Z,28.37
2019-05-18T01:55:42.236Z,28.73
2019-05-18T01:58:12.646Z,28.30
2019-05-18T02:00:43.037Z,30.90
2019-05-18T02:03:14.242Z,28.47
2019-05-18T02:05:44.870Z,27.10
2019-05-18T02:08:15.643Z,29.07
2019-05-18T02:10:46.007Z,27.87
2019-05-18T02:13:16.428Z,31.60
2019-05-18T02:15:47.202Z,29.80
2019-05-18T02:18:28.727Z,28.23
2019-05-18T02:20:50.019Z,29.20
2019-05-18T02:23:20.386Z,27.60
2019-05-18T02:25:51.156Z,28.80
2019-05-18T02:28:21.772Z,30.10
2019-05-18T02:30:52.442Z,30.20
2019-05-18T02:33:23.076Z,30.73
2019-05-18T02:35:54.226Z,30.23
2019-05-18T02:38:24.623Z,32.77
2019-05-18T02:40:54.996Z,32.17
2019-05-18T02:43:25.379Z,32.73
2019-05-18T02:45:56.132Z,30.57
2019-05-18T02:48:26.869Z,32.20
2019-05-18T02:50:57.917Z,31.73
2019-05-18T02:53:28.662Z,31.53
2019-05-18T02:55:59.014Z,32.20
2019-05-18T02:58:29.436Z,32.00
2019-05-18T03:00:59.890Z,33.40
2019-05-18T03:03:30.363Z,35.10
2019-05-18T03:06:00.773Z,33.80
2019-05-18T03:08:31.507Z,34.83
2019-05-18T03:11:01.911Z,33.97
2019-05-18T03:13:32.589Z,35.47
2019-05-18T03:16:03.011Z,35.00
2019-05-18T03:18:33.418Z,33.57
2019-05-18T03:21:03.799Z,36.00
2019-05-18T03:23:34.357Z,36.40
2019-05-18T03:26:04.732Z,35.97
2019-05-18T03:28:35.499Z,33.47
2019-05-18T03:31:06.620Z,35.27
2019-05-18T03:33:36.995Z,33.50
2019-05-18T03:36:07.373Z,36.80
2019-05-18T03:38:37.766Z,35.57
2019-05-18T03:41:08.113Z,36.20
2019-05-18T03:43:38.483Z,35.60
2019-05-18T03:46:09.527Z,36.13
2019-05-18T03:48:39.920Z,37.67
2019-05-18T03:51:10.562Z,36.13
2019-05-18T03:53:40.945Z,36.00
2019-05-18T03:56:11.694Z,37.40
2019-05-18T03:58:42.435Z,35.27
2019-05-18T04:01:13.103Z,35.00
2019-05-18T04:03:43.452Z,35.90
2019-05-18T04:06:13.939Z,37.20
2019-05-18T04:08:44.345Z,36.63
2019-05-18T04:11:14.974Z,36.60
2019-05-18T04:13:45.592Z,37.57
2019-05-18T04:16:16.059Z,35.83
2019-05-18T04:18:46.438Z,35.73
2019-05-18T04:21:16.845Z,36.20
2019-05-18T04:23:47.586Z,37.00
2019-05-18T04:26:18.457Z,36.37
2019-05-18T04:28:48.848Z,37.73
2019-05-18T04:31:19.272Z,36.30
2019-05-18T04:33:49.622Z,37.10
2019-05-18T04:36:20.055Z,34.97
2019-05-18T04:38:50.512Z,37.30
2019-05-18T04:41:21.189Z,37.90
2019-05-18T04:43:51.610Z,36.80
2019-05-18T04:46:22.140Z,37.53
2019-05-18T04:48:52.514Z,36.03
2019-05-18T04:51:23.663Z,38.47
2019-05-18T04:53:54.817Z,35.77
2019-05-18T04:56:25.197Z,38.13
2019-05-18T04:58:55.607Z,37.60
2019-05-18T05:01:26.059Z,36.83
2019-05-18T05:03:57.059Z,37.77
2019-05-18T05:06:27.460Z,38.07
2019-05-18T05:08:58.165Z,36.83
2019-05-18T05:11:28.921Z,36.40
2019-05-18T05:13:59.563Z,37.77
2019-05-18T05:16:29.938Z,37.63
2019-05-18T05:19:00.318Z,36.73
2019-05-18T05:21:31.421Z,37.40
2019-05-18T05:24:01.834Z,36.63
2019-05-18T05:26:32.216Z,36.87
2019-05-18T05:29:02.710Z,36.70
2019-05-18T05:31:33.813Z,33.57
2019-05-18T05:34:04.501Z,34.87
2019-05-18T05:36:54.616Z,33.63
2019-05-18T05:39:25.036Z,33.53
2019-05-18T05:41:55.749Z,32.23
2019-05-18T05:44:26.530Z,31.57
2019-05-18T05:46:56.906Z,31.30
2019-05-18T05:49:27.704Z,30.53
2019-05-18T05:51:58.088Z,29.40
2019-05-18T05:54:29.138Z,30.40
2019-05-18T05:56:59.928Z,27.67
2019-05-18T05:59:30.306Z,25.43
2019-05-18T06:02:00.704Z,25.63
2019-05-18T06:04:31.499Z,24.47
2019-05-18T06:07:01.898Z,23.80
2019-05-18T06:09:32.322Z,22.63
2019-05-18T06:12:03.085Z,21.90
2019-05-18T06:14:33.476Z,20.90
2019-05-18T06:17:03.868Z,22.00
2019-05-18T06:19:34.311Z,18.93
2019-05-18T06:22:04.679Z,18.47
2019-05-18T06:24:35.426Z,19.37
2019-05-18T06:27:06.251Z,19.57
2019-05-18T06:29:37.211Z,15.30
2019-05-18T06:32:07.588Z,16.80
2019-05-18T06:34:37.988Z,16.67
2019-05-18T06:37:08.725Z,16.30
2019-05-18T06:39:39.128Z,16.60
2019-05-18T06:42:10.959Z,15.20
2019-05-18T06:44:41.391Z,15.23
2019-05-18T06:47:11.789Z,12.20
2019-05-18T06:50:13.320Z,13.27
2019-05-18T06:52:44.122Z,12.50
2019-05-18T06:55:14.585Z,12.37
2019-05-18T06:57:45.895Z,12.33
2019-05-18T07:00:19.265Z,12.50
2019-05-18T07:02:49.625Z,11.27
2019-05-18T07:05:20.010Z,11.30
2019-05-18T07:07:50.936Z,11.20
2019-05-18T07:10:21.640Z,10.10
2019-05-18T07:12:52.010Z,10.17
2019-05-18T07:15:23.112Z,9.70
2019-05-18T07:17:53.499Z,9.23
2019-05-18T07:20:24.206Z,9.43
2019-05-18T07:22:54.980Z,8.80
2019-05-18T07:25:25.385Z,8.33
2019-05-18T07:27:55.956Z,9.10
2019-05-18T07:30:26.642Z,8.53
2019-05-18T07:32:57.008Z,9.57
2019-05-18T07:35:28.081Z,10.60
2019-05-18T07:37:58.528Z,9.27
2019-05-18T07:40:28.869Z,8.90
2019-05-18T07:42:59.576Z,10.47
2019-05-18T07:45:30.618Z,9.73
2019-05-18T07:48:01.347Z,9.50
2019-05-18T07:50:31.694Z,10.27
2019-05-18T07:53:02.039Z,8.97
2019-05-18T07:55:32.420Z,11.33
2019-05-18T07:58:03.474Z,8.67
2019-05-18T08:00:33.796Z,10.10
2019-05-18T08:03:05.621Z,11.07
2019-05-18T08:05:36.234Z,10.17
2019-05-18T08:08:08.578Z,9.20
2019-05-18T08:10:39.313Z,8.90
2019-05-18T08:13:09.666Z,8.53
2019-05-18T08:15:40.400Z,7.70
2019-05-18T08:18:10.825Z,9.20
2019-05-18T08:20:41.589Z,8.47
2019-05-18T08:23:12.580Z,8.80
2019-05-18T08:25:42.954Z,8.00
2019-05-18T08:28:13.287Z,7.27
2019-05-18T08:30:43.656Z,7.23
2019-05-18T08:33:14.478Z,7.17
2019-05-18T08:35:46.624Z,7.80
2019-05-18T08:38:17.068Z,8.10
2019-05-18T08:40:47.825Z,7.30
2019-05-18T08:43:29.609Z,7.60
2019-05-18T08:46:00.000Z,7.97
2019-05-18T08:48:30.725Z,7.47
2019-05-18T08:51:01.090Z,7.90
2019-05-18T08:53:31.448Z,7.33
2019-05-18T08:56:01.922Z,7.63
2019-05-18T08:58:32.598Z,7.67
2019-05-18T09:01:03.013Z,7.80
2019-05-18T09:03:33.441Z,7.97
2019-05-18T09:06:04.782Z,8.40
2019-05-18T09:08:35.173Z,7.83
2019-05-18T09:11:05.968Z,8.57
2019-05-18T09:13:36.380Z,7.63
2019-05-18T09:16:06.738Z,8.47
2019-05-18T09:18:37.137Z,7.37
2019-05-18T09:21:25.861Z,7.57
2019-05-18T09:23:57.144Z,6.70
2019-05-18T09:26:27.478Z,7.50
2019-05-18T09:28:57.844Z,6.73
2019-05-18T09:31:28.196Z,5.33
2019-05-18T09:33:58.829Z,6.00
2019-05-18T09:36:29.841Z,6.60
2019-05-18T09:39:00.683Z,5.60
2019-05-18T09:41:31.027Z,6.83
2019-05-18T09:44:01.430Z,6.60
2019-05-18T09:46:31.957Z,6.10
2019-05-18T09:49:02.291Z,5.97
2019-05-18T09:51:32.697Z,6.67
2019-05-18T09:54:03.083Z,6.10
2019-05-18T09:56:33.469Z,5.73
2019-05-18T09:59:03.899Z,5.80
2019-05-18T10:01:34.567Z,5.67
2019-05-18T10:04:04.963Z,5.20
2019-05-18T10:06:35.665Z,5.40
2019-05-18T10:09:08.642Z,4.90
2019-05-18T10:11:39.094Z,5.13
2019-05-18T10:14:09.775Z,5.47
2019-05-18T10:16:40.194Z,5.53
2019-05-18T10:19:10.580Z,5.00
2019-05-18T10:21:40.922Z,5.43
2019-05-18T10:24:11.305Z,5.70
2019-05-18T10:26:41.727Z,5.73
2019-05-18T10:29:12.481Z,5.80
2019-05-18T10:34:17.658Z,5.70
2019-05-18T10:36:48.044Z,6.03
2019-05-18T10:39:18.454Z,5.27
2019-05-18T10:41:49.489Z,5.70
2019-05-18T10:44:20.199Z,5.20
2019-05-18T10:46:50.620Z,6.15
2019-05-18T10:49:20.984Z,5.47
2019-05-18T10:51:51.378Z,5.67
2019-05-18T10:54:22.110Z,5.97
2019-05-18T10:56:52.441Z,5.67
2019-05-18T10:59:22.860Z,6.23
2019-05-18T11:01:53.236Z,5.73
2019-05-18T11:04:23.569Z,5.10
2019-05-18T11:06:54.421Z,4.80
2019-05-18T11:09:24.829Z,5.37
2019-05-18T11:11:55.187Z,4.90
2019-05-18T11:14:25.556Z,4.10
2019-05-18T11:16:55.945Z,4.30
2019-05-18T11:19:26.301Z,5.27
2019-05-18T11:21:56.730Z,4.40
2019-05-18T11:24:27.096Z,4.23
2019-05-18T11:26:57.803Z,4.40
2019-05-18T11:29:28.216Z,4.40
2019-05-18T11:31:58.564Z,4.00
2019-05-18T11:34:29.296Z,3.60
2019-05-18T11:37:03.000Z,4.07
2019-05-18T11:39:32.167Z,4.23
2019-05-18T11:42:02.880Z,4.40
2019-05-18T11:44:33.476Z,3.50
2019-05-18T11:47:03.878Z,3.80
2019-05-18T11:49:34.212Z,4.00
2019-05-18T11:52:04.579Z,8.60
2019-05-18T11:54:35.275Z,5.77
2019-05-18T11:57:05.644Z,4.00
2019-05-18T11:59:35.998Z,3.90
2019-05-18T12:02:06.369Z,3.23
2019-05-18T12:04:36.749Z,2.93
2019-05-18T12:07:07.093Z,3.30
2019-05-18T12:09:37.569Z,3.33
2019-05-18T12:12:08.030Z,3.30
2019-05-18T12:14:38.409Z,2.87
2019-05-18T12:17:08.793Z,3.20
2019-05-18T12:19:39.201Z,4.50
2019-05-18T12:22:09.924Z,2.40
2019-05-18T12:24:40.514Z,3.53
2019-05-18T12:27:10.897Z,2.67
2019-05-18T12:29:41.282Z,2.50
2019-05-18T12:32:11.685Z,2.23
2019-05-18T12:34:45.002Z,2.60
2019-05-18T12:37:15.770Z,2.30
2019-05-18T12:39:46.107Z,3.00
2019-05-18T12:42:16.857Z,2.80
2019-05-18T12:44:47.572Z,2.30
2019-05-18T12:47:18.299Z,2.40
2019-05-18T12:49:48.633Z,2.33
2019-05-18T12:52:19.010Z,2.13
2019-05-18T12:54:49.358Z,2.53
2019-05-18T12:57:19.694Z,2.03
2019-05-18T12:59:50.120Z,1.63
2019-05-18T13:02:20.499Z,1.80
2019-05-18T13:04:50.835Z,2.13
2019-05-18T13:07:21.197Z,1.87
2019-05-18T13:09:51.939Z,1.40
2019-05-18T13:12:22.672Z,2.20
2019-05-18T13:14:53.094Z,1.83
2019-05-18T13:17:23.445Z,2.10
2019-05-18T13:19:54.224Z,1.90
2019-05-18T13:22:24.864Z,1.63
2019-05-18T13:24:55.607Z,1.97
2019-05-18T13:27:38.896Z,2.23
2019-05-18T13:29:58.324Z,4.57
2019-05-18T13:32:28.935Z,2.20
2019-05-18T13:34:59.324Z,2.23
2019-05-18T13:37:29.983Z,2.83
2019-05-18T13:40:00.620Z,2.83
2019-05-18T13:42:31.250Z,2.50
2019-05-18T13:45:01.982Z,2.60
2019-05-18T13:47:32.323Z,2.20
2019-05-18T13:50:02.687Z,2.13
2019-05-18T13:52:33.083Z,3.07
2019-05-18T13:55:05.166Z,2.90
2019-05-18T13:57:36.023Z,1.93
2019-05-18T14:00:08.834Z,2.00
2019-05-18T14:02:39.245Z,1.77
2019-05-18T14:05:09.581Z,2.40
2019-05-18T14:07:39.946Z,2.30
2019-05-18T14:10:12.472Z,1.60
2019-05-18T14:12:42.372Z,2.07
2019-05-18T14:15:12.774Z,2.23
2019-05-18T14:17:43.540Z,1.90
2019-05-18T14:20:14.138Z,2.00
2019-05-18T14:22:44.530Z,2.33
2019-05-18T14:25:20.045Z,1.93
2019-05-18T14:27:47.570Z,1.67
2019-05-18T14:30:19.238Z,2.20
2019-05-18T14:32:49.912Z,2.03
2019-05-18T14:35:20.268Z,1.90
2019-05-18T14:37:50.917Z,2.30
2019-05-18T14:40:21.281Z,2.47
2019-05-18T14:42:51.960Z,2.30
2019-05-18T14:45:22.458Z,1.83
2019-05-18T14:47:53.112Z,2.07
2019-05-18T14:50:24.037Z,2.20
2019-05-18T14:52:54.374Z,2.00
2019-05-18T14:55:33.223Z,1.90
2019-05-18T14:57:56.917Z,2.10
2019-05-18T15:00:27.255Z,1.40
2019-05-18T15:02:57.665Z,2.03
2019-05-18T15:05:28.877Z,5.53
2019-05-18T15:07:59.204Z,1.97
2019-05-18T15:10:29.570Z,2.07
2019-05-18T15:12:59.967Z,2.33
2019-05-18T15:15:30.327Z,2.00
2019-05-18T15:18:00.712Z,1.80
2019-05-18T15:20:31.238Z,1.80
2019-05-18T15:23:01.846Z,2.50
2019-05-18T15:25:32.254Z,1.90
2019-05-18T15:28:02.639Z,2.10
2019-05-18T15:30:33.372Z,2.20
2019-05-18T15:33:03.764Z,2.03
2019-05-18T15:35:34.135Z,2.10
2019-05-18T15:38:04.746Z,2.30
2019-05-18T15:40:35.075Z,1.60
2019-05-18T15:43:05.738Z,2.07
2019-05-18T15:45:36.661Z,2.40
2019-05-18T15:48:07.026Z,2.10
2019-05-18T15:50:37.778Z,2.40
2019-05-18T15:53:08.474Z,1.90
2019-05-18T15:55:39.243Z,1.57
2019-05-18T15:58:09.641Z,2.37
2019-05-18T16:00:40.348Z,1.80
2019-05-18T16:03:10.749Z,2.20
2019-05-18T16:05:41.129Z,1.80
2019-05-18T16:08:11.489Z,1.90
2019-05-18T16:10:41.921Z,1.97
2019-05-18T16:13:12.258Z,2.30
2019-05-18T16:15:42.949Z,1.87
2019-05-18T16:18:13.301Z,1.50
2019-05-18T16:20:44.073Z,2.00
2019-05-18T16:23:14.433Z,2.10
2019-05-18T16:25:45.432Z,2.17
2019-05-18T16:28:15.922Z,1.70
2019-05-18T16:30:46.652Z,2.13
2019-05-18T16:33:16.991Z,2.07
2019-05-18T16:35:47.379Z,2.83
2019-05-18T16:38:17.738Z,2.87
2019-05-18T16:40:48.078Z,1.90
2019-05-18T16:43:18.822Z,2.10
2019-05-18T16:45:49.515Z,1.90
2019-05-18T16:48:20.178Z,1.90
2019-05-18T16:50:50.510Z,2.00
2019-05-18T16:53:21.001Z,2.20
2019-05-18T16:55:51.394Z,2.40
2019-05-18T16:58:21.745Z,2.13
2019-05-18T17:00:52.165Z,2.03
2019-05-18T17:03:22.890Z,1.97
2019-05-18T17:05:53.578Z,2.07
2019-05-18T17:08:23.930Z,2.07
2019-05-18T17:10:54.574Z,2.00
2019-05-18T17:13:24.913Z,1.90
2019-05-18T17:15:55.462Z,1.87
2019-05-18T17:18:25.817Z,2.80
2019-05-18T17:20:56.149Z,2.27
2019-05-18T17:23:26.887Z,2.27
2019-05-18T17:25:57.221Z,2.20
2019-05-18T17:28:27.931Z,2.57
2019-05-18T17:30:58.547Z,2.10
2019-05-18T17:33:28.903Z,2.27
2019-05-18T17:36:00.539Z,2.23
2019-05-18T17:38:31.160Z,2.57
2019-05-18T17:41:01.536Z,2.17
2019-05-18T17:43:31.918Z,2.80
2019-05-18T17:46:02.257Z,2.60
2019-05-18T17:48:33.425Z,2.73
2019-05-18T17:51:03.784Z,2.60
2019-05-18T17:53:34.143Z,2.53
2019-05-18T17:56:04.855Z,2.40
2019-05-18T17:58:35.261Z,3.20
2019-05-18T18:01:05.597Z,3.23
2019-05-18T18:03:35.958Z,3.33
2019-05-18T18:06:06.471Z,3.57
2019-05-18T18:08:37.104Z,3.90
2019-05-18T18:11:07.451Z,3.23
2019-05-18T18:13:37.843Z,3.73
2019-05-18T18:16:08.569Z,2.97
2019-05-18T18:18:38.933Z,3.07
2019-05-18T18:21:09.324Z,3.40
2019-05-18T18:23:40.267Z,2.90
2019-05-18T18:26:10.748Z,3.03
2019-05-18T18:28:41.083Z,3.10
2019-05-18T18:31:12.105Z,2.80
2019-05-18T18:33:42.862Z,4.27
2019-05-18T18:36:13.206Z,4.40
2019-05-18T18:38:43.660Z,3.97
2019-05-18T18:41:14.062Z,3.43
2019-05-18T18:43:44.414Z,3.83
2019-05-18T18:46:15.265Z,4.00
2019-05-18T18:48:45.945Z,3.50
2019-05-18T18:51:16.309Z,4.03
2019-05-18T18:53:47.103Z,4.00
2019-05-18T18:56:17.870Z,3.60
2019-05-18T18:58:48.644Z,4.03
2019-05-18T19:01:19.002Z,4.37
2019-05-18T19:03:49.362Z,4.93
2019-05-18T19:06:19.776Z,5.03
2019-05-18T19:08:50.166Z,5.70
2019-05-18T19:11:20.551Z,5.30
2019-05-18T19:13:51.078Z,5.63
2019-05-18T19:16:21.971Z,5.27
2019-05-18T19:18:52.769Z,5.10
2019-05-18T19:21:23.130Z,4.90
2019-05-18T19:23:53.876Z,5.20
2019-05-18T19:26:24.264Z,5.63
2019-05-18T19:28:54.674Z,5.27
2019-05-18T19:31:25.383Z,5.03
2019-05-18T19:33:55.750Z,5.73
2019-05-18T19:36:26.626Z,6.13
2019-05-18T19:39:16.425Z,6.30
2019-05-18T19:41:46.797Z,6.67
2019-05-18T19:44:17.659Z,6.10
2019-05-18T19:46:48.043Z,7.03
2019-05-18T19:49:18.360Z,6.57
2019-05-18T19:51:49.092Z,7.20
2019-05-18T19:54:19.448Z,8.80
2019-05-18T19:56:50.185Z,8.40
2019-05-18T19:59:20.853Z,9.17
2019-05-18T20:02:10.712Z,8.47
2019-05-18T20:04:41.074Z,8.90
2019-05-18T20:07:11.457Z,8.80
2019-05-18T20:09:41.803Z,9.10
2019-05-18T20:12:12.620Z,9.97
2019-05-18T20:14:42.988Z,9.17
2019-05-18T20:17:13.747Z,10.57
2019-05-18T20:19:44.806Z,10.10
2019-05-18T20:22:15.205Z,10.60
2019-05-18T20:24:45.618Z,12.30
2019-05-18T20:27:16.418Z,11.63
2019-05-18T20:29:47.132Z,11.10
2019-05-18T20:32:17.931Z,11.00
2019-05-18T20:34:48.584Z,11.20
2019-05-18T20:37:18.984Z,10.50
2019-05-18T20:39:49.336Z,14.20
2019-05-18T20:42:19.730Z,21.00
2019-05-18T20:44:50.118Z,17.50
2019-05-18T20:47:20.533Z,16.90
2019-05-18T20:49:50.908Z,19.67
2019-05-18T20:52:21.317Z,17.47
2019-05-18T20:54:59.517Z,17.17
2019-05-18T20:57:29.884Z,19.00
2019-05-18T21:00:00.234Z,17.53
2019-05-18T21:02:31.007Z,17.47
2019-05-18T21:05:01.395Z,17.00
2019-05-18T21:07:31.772Z,17.77
2019-05-18T21:10:02.160Z,17.23
2019-05-18T21:12:32.564Z,16.60
2019-05-18T21:15:03.977Z,23.67
2019-05-18T21:17:34.338Z,26.87
2019-05-18T21:20:06.441Z,22.60
2019-05-18T21:22:36.858Z,22.40
2019-05-18T21:25:07.609Z,24.57
2019-05-18T21:27:37.975Z,29.90
2019-05-18T21:30:08.378Z,28.87
2019-05-18T21:32:38.734Z,27.70
2019-05-18T21:35:09.555Z,26.30
2019-05-18T21:37:40.265Z,25.93
2019-05-18T21:40:10.990Z,24.13
2019-05-18T21:42:41.363Z,24.50
2019-05-18T21:45:11.825Z,25.47
2019-05-18T21:47:42.534Z,23.97
2019-05-18T21:50:13.394Z,22.77
2019-05-18T21:52:43.771Z,23.27
2019-05-18T21:55:14.158Z,23.23
2019-05-18T21:57:44.977Z,22.37
2019-05-18T22:00:15.866Z,23.20
2019-05-18T22:02:46.295Z,22.33
2019-05-18T22:05:17.058Z,21.20
2019-05-18T22:07:47.427Z,22.10
2019-05-18T22:10:25.743Z,19.80
2019-05-18T22:12:50.861Z,23.03
2019-05-18T22:15:21.257Z,23.30
2019-05-18T22:18:03.470Z,22.37
2019-05-18T22:20:35.696Z,22.80
2019-05-18T22:23:07.568Z,23.50
2019-05-18T22:25:38.005Z,22.10
2019-05-18T22:28:08.655Z,21.43
2019-05-18T22:30:39.027Z,21.00
2019-05-18T22:33:09.398Z,20.60
2019-05-18T22:35:39.826Z,19.93
2019-05-18T22:38:10.167Z,21.03
2019-05-18T22:40:40.720Z,20.23
2019-05-18T22:43:11.098Z,19.17
2019-05-18T22:45:41.832Z,18.73
2019-05-18T22:48:12.236Z,19.90
2019-05-18T22:50:42.852Z,18.23
2019-05-18T22:53:13.218Z,20.37
2019-05-18T22:55:43.569Z,19.13
2019-05-18T22:58:14.068Z,20.20
2019-05-18T23:00:44.410Z,17.97
2019-05-18T23:03:14.780Z,18.20
2019-05-18T23:05:45.279Z,18.33
2019-05-18T23:08:15.652Z,19.47
2019-05-18T23:10:46.315Z,18.60
2019-05-18T23:13:16.723Z,19.00
2019-05-18T23:15:47.480Z,17.73
2019-05-18T23:18:17.875Z,18.80
2019-05-18T23:20:48.222Z,19.57
2019-05-18T23:23:19.197Z,19.93
2019-05-18T23:25:49.563Z,19.40
2019-05-18T23:28:20.249Z,18.93
2019-05-18T23:30:50.680Z,18.73
2019-05-18T23:33:21.078Z,19.93
2019-05-18T23:35:51.870Z,20.27
2019-05-18T23:38:22.294Z,19.50
2019-05-18T23:40:52.674Z,19.23
2019-05-18T23:43:23.443Z,19.77
2019-05-18T23:45:54.489Z,20.67
2019-05-18T23:48:25.261Z,19.63
2019-05-18T23:50:56.289Z,20.97
2019-05-18T23:53:26.700Z,19.47
2019-05-18T23:55:57.293Z,22.40
2019-05-18T23:58:27.737Z,24.57
